Time;durP1;ratioP1;P1;durP2;ratioP2;P2;SDS_P1;SDS_P2;PMS_P1;PMS_P2;Temp;Humidity;BMP_temperature;BMP_pressure;BME280_temperature;BME280_humidity;BME280_pressure;Samples;Min_cycle;Max_cycle;Signal;HPM_P1;HPM_P2
2021/11/28 00:01:03;;;;;;;;;;;;;;;22.55;30.50;96766.88;4909097;29;886;-78
2021/11/28 00:03:29;;;;;;;;;;;;;;;22.92;29.63;96767.44;4855876;29;935;-79
2021/11/28 00:06:02;;;;;;;;;;;;;;;22.84;29.46;96766.97;4867233;29;890;-79
2021/11/28 00:10:59;;;;;;;;;;;;;;;22.48;29.66;96772.88;4889653;29;1179;-79
2021/11/28 00:13:47;;;;;;;;;;;;;;;22.36;29.66;96771.84;4885475;29;884;-79
2021/11/28 00:16:10;;;;;;;;;;;;;;;22.69;30.52;96779.53;4891291;29;1978;-79
2021/11/28 00:18:36;;;;;;;;;;;;;;;22.87;29.64;96777.34;4910735;29;813;-79
2021/11/28 00:21:01;;;;;;;;;;;;;;;22.69;29.88;96771.81;4889625;29;942;-78
2021/11/28 00:23:27;;;;;;;;;;;;;;;22.42;30.18;96775.56;4904050;29;889;-78
2021/11/28 00:25:52;;;;;;;;;;;;;;;22.14;30.21;96776.97;4907720;29;1112;-79
2021/11/28 00:28:18;;;;;;;;;;;;;;;22.43;29.59;96770.69;4923344;29;1215;-79
2021/11/28 00:30:43;;;;;;;;;;;;;;;22.33;29.81;96767.94;4964030;28;1271;-79
2021/11/28 00:33:09;;;;;;;;;;;;;;;22.52;29.52;96768.59;4943018;29;993;-79
2021/11/28 00:35:35;;;;;;;;;;;;;;;22.27;29.86;96769.81;4956263;29;1892;-79
2021/11/28 00:38:00;;;;;;;;;;;;;;;21.97;30.40;96766.00;4962356;29;1216;-79
2021/11/28 00:40:26;;;;;;;;;;;;;;;22.21;30.11;96760.41;4924425;29;963;-80
2021/11/28 00:42:51;;;;;;;;;;;;;;;22.26;30.24;96762.59;4923694;29;925;-79
2021/11/28 00:45:17;;;;;;;;;;;;;;;22.69;30.45;96759.66;4924566;29;788;-79
2021/11/28 00:47:42;;;;;;;;;;;;;;;22.87;29.80;96776.56;4925488;29;893;-79
2021/11/28 00:52:37;;;;;;;;;;;;;;;22.38;30.10;96769.28;4925811;29;1357;-79
2021/11/28 00:55:02;;;;;;;;;;;;;;;22.22;30.29;96756.31;4923542;29;1117;-78
2021/11/28 00:57:28;;;;;;;;;;;;;;;22.16;30.27;96763.88;4923873;29;2002;-79
2021/11/28 00:59:54;;;;;;;;;;;;;;;22.31;30.13;96755.47;4890948;29;955;-78
2021/11/28 01:02:19;;;;;;;;;;;;;;;22.04;30.42;96750.69;4888079;29;1192;-79
2021/11/28 01:04:45;;;;;;;;;;;;;;;22.27;31.03;96747.16;4885854;29;1275;-79
2021/11/28 01:07:11;;;;;;;;;;;;;;;22.65;30.54;96742.88;4872503;29;971;-79
2021/11/28 01:09:37;;;;;;;;;;;;;;;22.75;30.24;96730.19;4893217;29;1304;-79
2021/11/28 01:12:02;;;;;;;;;;;;;;;22.42;30.10;96729.44;4943813;29;1116;-78
2021/11/28 01:14:28;;;;;;;;;;;;;;;22.41;30.29;96733.56;4922472;29;1137;-79
2021/11/28 01:16:54;;;;;;;;;;;;;;;22.21;30.16;96734.91;4927188;29;1923;-79
2021/11/28 01:19:20;;;;;;;;;;;;;;;22.19;30.48;96740.28;4942543;29;1037;-79
2021/11/28 01:21:50;;;;;;;;;;;;;;;22.49;30.88;96729.09;4925370;29;1078;-79
2021/11/28 01:24:16;;;;;;;;;;;;;;;22.66;30.22;96727.41;4889499;29;1383;-79
2021/11/28 01:26:41;;;;;;;;;;;;;;;22.59;29.99;96736.28;4877469;29;948;-79
2021/11/28 01:29:07;;;;;;;;;;;;;;;22.36;30.14;96726.50;4866444;29;980;-78
2021/11/28 01:31:32;;;;;;;;;;;;;;;22.43;29.81;96725.34;4887196;29;1013;-79
2021/11/28 01:33:58;;;;;;;;;;;;;;;22.31;30.01;96718.66;4900025;29;966;-79
2021/11/28 01:36:24;;;;;;;;;;;;;;;22.35;30.25;96720.03;4901776;29;1888;-78
2021/11/28 01:38:50;;;;;;;;;;;;;;;22.51;30.48;96716.00;4874560;29;1133;-79
2021/11/28 01:41:15;;;;;;;;;;;;;;;22.84;30.21;96718.75;4870971;29;1223;-79
2021/11/28 01:43:41;;;;;;;;;;;;;;;22.87;29.65;96714.97;4860626;29;947;-79
2021/11/28 01:46:06;;;;;;;;;;;;;;;22.50;30.01;96716.50;4872676;29;966;-79
2021/11/28 01:48:32;;;;;;;;;;;;;;;22.63;29.81;96717.03;4903023;29;1263;-79
2021/11/28 01:51:02;;;;;;;;;;;;;;;22.22;30.37;96718.69;4922155;29;1128;-79
2021/11/28 01:53:28;;;;;;;;;;;;;;;22.32;29.89;96720.22;4908047;29;1112;-79
2021/11/28 01:55:54;;;;;;;;;;;;;;;22.49;30.62;96712.88;4923826;29;1907;-78
2021/11/28 01:58:39;;;;;;;;;;;;;;;22.79;30.00;96719.41;4935098;29;1171;-79
2021/11/28 02:01:06;;;;;;;;;;;;;;;22.79;29.89;96715.81;4967573;28;1292;-78
2021/11/28 02:03:36;;;;;;;;;;;;;;;22.28;30.24;96720.41;4931574;29;1281;-78
2021/11/28 02:06:02;;;;;;;;;;;;;;;22.16;30.22;96718.56;4986831;28;1241;-78
2021/11/28 02:08:28;;;;;;;;;;;;;;;22.11;30.23;96719.22;4982058;28;1255;-79
2021/11/28 02:10:53;;;;;;;;;;;;;;;22.14;30.47;96721.09;4985171;28;1181;-79
2021/11/28 02:13:20;;;;;;;;;;;;;;;22.54;30.90;96719.94;4981861;28;895;-79
2021/11/28 02:15:46;;;;;;;;;;;;;;;22.67;30.16;96711.97;4984415;28;1879;-79
2021/11/28 02:18:11;;;;;;;;;;;;;;;22.68;30.11;96718.41;4966000;28;1294;-78
2021/11/28 02:20:41;;;;;;;;;;;;;;;22.40;30.32;96712.16;4964054;29;1147;-79
2021/11/28 02:23:06;;;;;;;;;;;;;;;22.07;30.32;96704.41;4944635;28;972;-80
2021/11/28 02:25:32;;;;;;;;;;;;;;;22.13;30.34;96690.44;4939586;29;1250;-79
2021/11/28 02:27:58;;;;;;;;;;;;;;;22.43;30.25;96691.31;4925397;29;1142;-79
2021/11/28 02:30:24;;;;;;;;;;;;;;;22.75;30.53;96692.53;4957920;29;1228;-79
2021/11/28 02:32:51;;;;;;;;;;;;;;;22.92;29.68;96692.91;4944521;29;1463;-79
2021/11/28 02:35:17;;;;;;;;;;;;;;;22.52;29.85;96685.59;4926481;29;1888;-79
2021/11/28 02:37:42;;;;;;;;;;;;;;;22.46;29.76;96684.72;4926362;29;1376;-78
2021/11/28 02:40:14;;;;;;;;;;;;;;;22.35;29.85;96677.53;4940653;29;1261;-79
2021/11/28 02:42:39;;;;;;;;;;;;;;;22.27;30.05;96670.66;4891920;29;1214;-78
2021/11/28 02:45:05;;;;;;;;;;;;;;;22.50;30.58;96663.41;4905754;29;1157;-78
2021/11/28 02:47:31;;;;;;;;;;;;;;;22.78;30.07;96651.84;4888378;29;1193;-79
2021/11/28 02:49:57;;;;;;;;;;;;;;;22.71;29.87;96644.50;4905390;29;953;-79
2021/11/28 02:52:22;;;;;;;;;;;;;;;22.59;29.97;96651.25;4858956;29;1039;-78
2021/11/28 02:54:48;;;;;;;;;;;;;;;22.39;30.06;96642.56;4886812;29;1058;-78
2021/11/28 02:57:13;;;;;;;;;;;;;;;22.41;30.09;96637.19;4872908;29;1915;-79
2021/11/28 02:59:39;;;;;;;;;;;;;;;22.32;30.25;96635.97;4816157;29;1060;-79
2021/11/28 03:02:05;;;;;;;;;;;;;;;22.31;30.53;96628.75;4844284;29;1359;-79
2021/11/28 03:04:50;;;;;;;;;;;;;;;22.79;30.21;96640.03;4852051;29;1019;-79
2021/11/28 03:07:16;;;;;;;;;;;;;;;22.90;30.13;96638.69;4884351;29;1069;-79
2021/11/28 03:09:42;;;;;;;;;;;;;;;22.76;29.64;96631.72;4903514;29;1017;-79
2021/11/28 03:12:07;;;;;;;;;;;;;;;22.33;30.21;96629.06;4944843;29;1118;-77
2021/11/28 03:14:33;;;;;;;;;;;;;;;22.38;29.86;96633.25;4923620;29;1124;-79
2021/11/28 03:16:58;;;;;;;;;;;;;;;22.33;30.27;96626.22;4907340;29;1911;-79
2021/11/28 03:19:24;;;;;;;;;;;;;;;22.35;29.87;96628.56;4905551;29;915;-79
2021/11/28 03:21:49;;;;;;;;;;;;;;;22.39;30.03;96631.25;4926155;29;936;-79
2021/11/28 03:24:15;;;;;;;;;;;;;;;22.50;29.98;96629.41;4924149;29;953;-79
2021/11/28 03:26:40;;;;;;;;;;;;;;;21.92;30.58;96618.59;4894453;29;1165;-78
2021/11/28 03:29:09;;;;;;;;;;;;;;;22.04;31.38;96620.41;4904865;29;1244;-79
2021/11/28 03:32:09;;;;;;;;;;;;;;;22.71;30.55;96621.84;4906878;29;899;-79
2021/11/28 03:34:50;;;;;;;;;;;;;;;22.90;29.92;96631.00;4905213;29;1004;-79
2021/11/28 03:37:21;;;;;;;;;;;;;;;22.53;30.16;96631.25;4925726;29;1899;-78
2021/11/28 03:39:46;;;;;;;;;;;;;;;22.13;30.56;96637.38;4901199;29;923;-79
2021/11/28 03:42:14;;;;;;;;;;;;;;;22.22;30.33;96631.63;4890535;29;1308;-78
2021/11/28 03:44:45;;;;;;;;;;;;;;;22.19;30.46;96632.63;4915022;29;1120;-79
2021/11/28 03:47:13;;;;;;;;;;;;;;;22.60;30.64;96627.28;4885397;29;1165;-78
2021/11/28 03:49:39;;;;;;;;;;;;;;;22.72;30.44;96629.06;4869652;29;1132;-78
2021/11/28 03:52:05;;;;;;;;;;;;;;;22.84;29.88;96630.06;4869792;29;961;-79
2021/11/28 03:54:31;;;;;;;;;;;;;;;22.50;30.47;96622.97;4904395;29;1239;-78
2021/11/28 03:56:56;;;;;;;;;;;;;;;22.31;30.33;96622.31;4921782;29;1958;-79
2021/11/28 03:59:24;;;;;;;;;;;;;;;22.40;29.93;96612.97;4939725;29;1084;-79
2021/11/28 04:01:50;;;;;;;;;;;;;;;22.26;30.15;96618.09;4948166;29;1125;-78
2021/11/28 04:04:16;;;;;;;;;;;;;;;22.60;30.83;96610.28;4923010;29;1318;-79
2021/11/28 04:07:00;;;;;;;;;;;;;;;22.72;30.57;96617.72;4925017;29;899;-78
2021/11/28 04:09:27;;;;;;;;;;;;;;;22.45;30.38;96620.78;4886493;29;1448;-79
2021/11/28 04:11:53;;;;;;;;;;;;;;;22.30;30.34;96604.53;4902685;29;1209;-78
2021/11/28 04:14:20;;;;;;;;;;;;;;;22.32;30.21;96616.16;4922048;29;1309;-79
2021/11/28 04:16:47;;;;;;;;;;;;;;;22.28;30.17;96612.72;4905830;29;1879;-79
2021/11/28 04:19:13;;;;;;;;;;;;;;;22.36;30.93;96596.91;4888319;29;1404;-78
2021/11/28 04:21:44;;;;;;;;;;;;;;;22.70;30.65;96600.44;4906347;29;1190;-78
2021/11/28 04:24:10;;;;;;;;;;;;;;;22.84;29.85;96596.03;4903559;29;1193;-79
2021/11/28 04:26:36;;;;;;;;;;;;;;;22.47;30.36;96592.75;4888461;29;1180;-78
2021/11/28 04:29:02;;;;;;;;;;;;;;;22.42;30.04;96584.91;4886027;29;1051;-78
2021/11/28 04:31:28;;;;;;;;;;;;;;;22.46;30.04;96585.50;4849751;29;1148;-78
2021/11/28 04:33:53;;;;;;;;;;;;;;;22.14;30.28;96579.47;4880897;29;1261;-78
2021/11/28 04:36:19;;;;;;;;;;;;;;;22.57;30.82;96588.56;4868971;29;1954;-78
2021/11/28 04:38:44;;;;;;;;;;;;;;;23.05;29.80;96594.09;4880598;29;1064;-78
2021/11/28 04:41:10;;;;;;;;;;;;;;;22.91;29.51;96586.41;4900113;29;1022;-79
2021/11/28 04:43:43;;;;;;;;;;;;;;;22.61;30.14;96583.50;4884302;29;1163;-78
2021/11/28 04:46:09;;;;;;;;;;;;;;;22.38;30.04;96576.56;4875835;29;1168;-78
2021/11/28 04:48:34;;;;;;;;;;;;;;;22.28;30.10;96575.91;4880742;29;1282;-79
2021/11/28 04:51:12;;;;;;;;;;;;;;;22.23;30.25;96576.56;4888359;29;1238;-78
2021/11/28 04:53:37;;;;;;;;;;;;;;;22.48;29.80;96575.25;4884280;29;1152;-78
2021/11/28 04:56:05;;;;;;;;;;;;;;;22.34;30.29;96571.13;4888344;29;1879;-78
2021/11/28 04:58:30;;;;;;;;;;;;;;;22.63;30.94;96559.03;4884591;29;1245;-79
2021/11/28 05:00:56;;;;;;;;;;;;;;;22.97;30.11;96558.91;4882211;29;1203;-79
2021/11/28 05:03:22;;;;;;;;;;;;;;;22.41;30.32;96552.94;4883025;29;1197;-78
2021/11/28 05:06:19;;;;;;;;;;;;;;;22.44;30.01;96557.66;4889161;29;778;-79
2021/11/28 05:09:05;;;;;;;;;;;;;;;22.30;29.99;96558.41;4886114;29;1047;-78
2021/11/28 05:11:30;;;;;;;;;;;;;;;22.29;30.61;96557.63;4887833;29;1077;-78
2021/11/28 05:13:56;;;;;;;;;;;;;;;22.75;30.69;96559.28;4904862;29;1349;-78
2021/11/28 05:16:21;;;;;;;;;;;;;;;22.84;29.79;96568.44;4906647;29;1906;-79
2021/11/28 05:19:19;;;;;;;;;;;;;;;22.48;30.05;96568.78;4883075;29;903;-78
2021/11/28 05:22:01;;;;;;;;;;;;;;;22.29;30.39;96568.19;4860691;29;992;-78
2021/11/28 05:24:31;;;;;;;;;;;;;;;22.07;30.42;96574.91;4923988;29;1192;-79
2021/11/28 05:26:56;;;;;;;;;;;;;;;22.64;30.77;96579.69;4907266;29;1363;-78
2021/11/28 05:29:22;;;;;;;;;;;;;;;22.73;30.18;96595.81;4885209;29;1150;-78
2021/11/28 05:31:47;;;;;;;;;;;;;;;22.64;29.80;96593.88;4880725;29;1115;-78
2021/11/28 05:34:32;;;;;;;;;;;;;;;22.36;30.00;96590.47;4853185;29;887;-78
2021/11/28 05:37:15;;;;;;;;;;;;;;;22.22;30.02;96586.31;4878132;29;1899;-79
2021/11/28 05:39:42;;;;;;;;;;;;;;;22.19;29.78;96592.97;4870631;29;1256;-78
2021/11/28 05:42:08;;;;;;;;;;;;;;;22.29;29.75;96610.69;4856985;29;1076;-78
2021/11/28 05:44:35;;;;;;;;;;;;;;;22.24;29.90;96605.69;4871647;29;1234;-79
2021/11/28 05:47:20;;;;;;;;;;;;;;;22.41;30.04;96601.13;4854224;29;1007;-79
2021/11/28 05:50:08;;;;;;;;;;;;;;;22.39;30.29;96594.41;4852688;29;1494;-78
2021/11/28 05:52:38;;;;;;;;;;;;;;;22.56;31.18;96589.84;4853844;29;1206;-78
2021/11/28 05:55:04;;;;;;;;;;;;;;;22.79;30.04;96583.31;4879728;29;1269;-79
2021/11/28 05:57:32;;;;;;;;;;;;;;;22.76;29.86;96583.50;4872848;29;1923;-78
2021/11/28 05:59:58;;;;;;;;;;;;;;;22.58;29.99;96578.78;4889382;29;945;-78
2021/11/28 06:02:23;;;;;;;;;;;;;;;22.42;29.97;96594.19;4906843;29;1209;-78
2021/11/28 06:05:03;;;;;;;;;;;;;;;22.30;29.89;96603.75;4907641;29;1380;-78
2021/11/28 06:07:46;;;;;;;;;;;;;;;22.54;31.06;96613.00;4943652;29;1341;-79
2021/11/28 06:10:12;;;;;;;;;;;;;;;22.88;30.13;96620.13;4900990;29;1265;-78
2021/11/28 06:12:37;;;;;;;;;;;;;;;22.83;29.67;96623.59;4890552;29;1244;-79
2021/11/28 06:15:03;;;;;;;;;;;;;;;22.43;30.22;96620.47;4867973;29;1116;-78
2021/11/28 06:17:49;;;;;;;;;;;;;;;22.25;30.09;96619.34;4871194;29;1015;-78
2021/11/28 06:20:33;;;;;;;;;;;;;;;22.26;30.40;96620.13;4908716;29;923;-78
2021/11/28 06:23:06;;;;;;;;;;;;;;;22.56;30.82;96623.84;4908188;29;1151;-78
2021/11/28 06:25:32;;;;;;;;;;;;;;;22.74;30.40;96631.41;4908951;29;1163;-79
2021/11/28 06:27:58;;;;;;;;;;;;;;;22.76;29.57;96635.34;4892290;29;829;-79
2021/11/28 06:30:23;;;;;;;;;;;;;;;22.56;30.09;96643.69;4921804;29;1118;-79
2021/11/28 06:33:20;;;;;;;;;;;;;;;22.29;30.08;96653.97;4906399;29;893;-79
2021/11/28 06:36:05;;;;;;;;;;;;;;;22.01;30.40;96663.84;4895524;29;1994;-78
2021/11/28 06:38:49;;;;;;;;;;;;;;;22.25;30.21;96658.25;4893661;29;987;-78
2021/11/28 06:41:40;;;;;;;;;;;;;;;22.27;30.14;96662.16;4889877;29;1024;-79
2021/11/28 06:44:06;;;;;;;;;;;;;;;22.24;30.26;96674.47;4875873;29;1121;-78
2021/11/28 06:46:35;;;;;;;;;;;;;;;22.29;30.79;96675.84;4887562;29;1226;-78
2021/11/28 06:49:03;;;;;;;;;;;;;;;22.75;30.19;96673.47;4907044;29;1187;-78
2021/11/28 06:51:49;;;;;;;;;;;;;;;22.87;29.75;96658.25;4895244;29;1102;-79
2021/11/28 06:54:21;;;;;;;;;;;;;;;22.34;30.15;96655.34;4904205;29;1638;-78
2021/11/28 06:56:54;;;;;;;;;;;;;;;22.27;30.27;96638.69;4906378;29;1915;-79
2021/11/28 06:59:21;;;;;;;;;;;;;;;22.47;29.59;96636.03;4944813;29;1125;-78
2021/11/28 07:01:46;;;;;;;;;;;;;;;22.43;29.71;96623.31;4884532;29;1331;-78
2021/11/28 07:04:31;;;;;;;;;;;;;;;22.65;30.45;96623.78;4882797;29;969;-78
2021/11/28 07:07:14;;;;;;;;;;;;;;;22.90;29.70;96616.00;4846671;29;948;-78
2021/11/28 07:09:47;;;;;;;;;;;;;;;22.50;30.05;96600.28;4846876;29;1428;-78
2021/11/28 07:12:12;;;;;;;;;;;;;;;22.54;29.73;96606.56;4833313;29;1417;-78
2021/11/28 07:14:39;;;;;;;;;;;;;;;21.95;30.50;96606.28;4859990;29;1189;-78
2021/11/28 07:17:05;;;;;;;;;;;;;;;22.19;30.19;96626.97;4853316;29;1919;-78
2021/11/28 07:19:35;;;;;;;;;;;;;;;22.18;30.04;96608.41;4862099;29;1119;-78
2021/11/28 07:22:19;;;;;;;;;;;;;;;22.61;30.84;96606.16;4853061;29;1345;-78
2021/11/28 07:24:48;;;;;;;;;;;;;;;22.91;29.89;96600.59;4851150;29;1151;-78
2021/11/28 07:27:13;;;;;;;;;;;;;;;22.57;30.23;96602.72;4853046;29;1207;-79
2021/11/28 07:29:39;;;;;;;;;;;;;;;22.39;30.34;96611.41;4855153;29;1185;-78
2021/11/28 07:32:04;;;;;;;;;;;;;;;21.90;30.76;96615.44;4871519;29;846;-79
2021/11/28 07:34:48;;;;;;;;;;;;;;;22.23;30.19;96616.22;4868888;29;1000;-78
2021/11/28 07:37:46;;;;;;;;;;;;;;;22.63;30.47;96610.06;4907275;29;1915;-78
2021/11/28 07:40:12;;;;;;;;;;;;;;;22.93;29.98;96592.34;4914044;29;1043;-78
2021/11/28 07:42:44;;;;;;;;;;;;;;;22.96;29.83;96599.91;4970860;28;1310;-78
2021/11/28 07:45:27;;;;;;;;;;;;;;;22.68;29.99;96605.78;4983461;28;961;-78
2021/11/28 07:48:31;;;;;;;;;;;;;;;22.20;30.64;96625.69;4919352;29;949;-78
2021/11/28 07:51:10;;;;;;;;;;;;;;;22.34;29.98;96639.13;4878410;29;1187;-78
2021/11/28 07:53:38;;;;;;;;;;;;;;;22.36;29.92;96647.91;4905115;29;1192;-78
2021/11/28 07:56:04;;;;;;;;;;;;;;;22.27;30.13;96645.13;4924229;29;1974;-78
2021/11/28 07:58:49;;;;;;;;;;;;;;;22.35;30.01;96652.03;4904988;29;1005;-79
2021/11/28 08:01:21;;;;;;;;;;;;;;;22.16;30.33;96653.41;4893400;29;1189;-78
2021/11/28 08:03:50;;;;;;;;;;;;;;;22.17;30.48;96663.47;4867874;29;1083;-78
2021/11/28 08:06:34;;;;;;;;;;;;;;;22.28;30.04;96669.41;4870538;29;1012;-78
2021/11/28 08:09:23;;;;;;;;;;;;;;;22.22;30.04;96685.47;4887173;29;1026;-79
2021/11/28 08:12:01;;;;;;;;;;;;;;;22.61;30.54;96694.84;4897623;29;1153;-79
2021/11/28 08:14:26;;;;;;;;;;;;;;;22.91;30.18;96691.34;4892565;29;1283;-79
2021/11/28 08:16:52;;;;;;;;;;;;;;;22.63;29.95;96694.34;4888614;29;1977;-79
2021/11/28 08:19:17;;;;;;;;;;;;;;;22.21;30.73;96698.06;4904928;29;1156;-79
2021/11/28 08:21:43;;;;;;;;;;;;;;;22.31;30.14;96702.44;4908315;29;1089;-79
2021/11/28 08:24:08;;;;;;;;;;;;;;;22.40;29.99;96709.31;4911570;29;908;-79
2021/11/28 08:26:34;;;;;;;;;;;;;;;22.56;30.62;96712.50;4927010;29;987;-79
2021/11/28 08:29:00;;;;;;;;;;;;;;;22.94;30.25;96721.56;4924811;29;897;-79
2021/11/28 08:31:25;;;;;;;;;;;;;;;22.77;29.83;96721.97;4913529;29;965;-79
2021/11/28 08:34:17;;;;;;;;;;;;;;;22.54;29.94;96720.72;4926226;29;957;-79
2021/11/28 08:37:14;;;;;;;;;;;;;;;22.40;29.57;96695.16;4914910;29;1903;-79
2021/11/28 08:39:40;;;;;;;;;;;;;;;22.53;29.36;96673.00;4924742;29;1017;-79
2021/11/28 08:42:07;;;;;;;;;;;;;;;22.28;30.01;96677.91;4901753;29;1172;-79
2021/11/28 08:44:34;;;;;;;;;;;;;;;22.38;30.59;96678.59;4895910;29;1315;-79
2021/11/28 08:47:00;;;;;;;;;;;;;;;22.73;30.66;96693.00;4909611;29;1331;-79
2021/11/28 08:49:26;;;;;;;;;;;;;;;22.80;30.07;96708.88;4896840;29;1355;-79
2021/11/28 08:51:51;;;;;;;;;;;;;;;22.44;30.63;96716.38;4864917;29;1341;-79
2021/11/28 08:54:17;;;;;;;;;;;;;;;22.15;30.54;96733.22;4876904;29;1284;-79
2021/11/28 08:56:45;;;;;;;;;;;;;;;22.20;30.44;96741.84;4851906;29;1980;-80
2021/11/28 08:59:13;;;;;;;;;;;;;;;22.01;30.53;96735.44;4836574;29;1203;-79
2021/11/28 09:01:40;;;;;;;;;;;;;;;22.22;30.09;96730.81;4838202;29;1147;-79
2021/11/28 09:04:06;;;;;;;;;;;;;;;22.55;30.51;96727.19;4885522;29;1145;-79
2021/11/28 09:06:31;;;;;;;;;;;;;;;22.80;30.01;96735.19;4879554;29;1356;-79
2021/11/28 09:08:57;;;;;;;;;;;;;;;22.71;29.97;96718.25;4878378;29;1364;-79
2021/11/28 09:11:22;;;;;;;;;;;;;;;22.38;30.17;96711.84;4877944;29;1264;-79
2021/11/28 09:13:48;;;;;;;;;;;;;;;22.36;29.97;96709.50;4876857;29;1344;-79
2021/11/28 09:16:13;;;;;;;;;;;;;;;22.23;30.29;96700.44;4862325;29;1888;-79
2021/11/28 09:18:43;;;;;;;;;;;;;;;22.36;29.76;96690.44;4874559;29;1260;-79
2021/11/28 09:21:09;;;;;;;;;;;;;;;22.55;30.89;96673.31;4891812;29;1276;-79
2021/11/28 09:26:18;;;;;;;;;;;;;;;22.64;29.81;96664.75;4885509;29;911;-79
2021/11/28 09:28:44;;;;;;;;;;;;;;;22.53;29.93;96656.00;4914358;29;1010;-79
2021/11/28 09:31:10;;;;;;;;;;;;;;;22.47;29.81;96652.25;4870954;29;908;-79
2021/11/28 09:33:37;;;;;;;;;;;;;;;22.38;29.89;96660.81;4866915;29;880;-80
2021/11/28 09:36:02;;;;;;;;;;;;;;;22.49;29.53;96655.41;4944507;29;1984;-79
2021/11/28 09:38:28;;;;;;;;;;;;;;;22.53;30.32;96651.09;4947381;29;914;-79
2021/11/28 09:40:53;;;;;;;;;;;;;;;22.82;30.12;96647.56;4945729;29;954;-79
2021/11/28 09:43:19;;;;;;;;;;;;;;;22.91;29.63;96645.97;4885690;29;904;-79
2021/11/28 09:45:45;;;;;;;;;;;;;;;22.67;29.68;96655.25;4940865;29;970;-79
2021/11/28 09:48:10;;;;;;;;;;;;;;;22.38;30.21;96638.16;4973551;28;1289;-79
2021/11/28 09:50:36;;;;;;;;;;;;;;;22.47;30.10;96640.91;4960354;29;1323;-79
2021/11/28 09:53:02;;;;;;;;;;;;;;;22.12;30.26;96621.63;4924791;29;1203;-79
2021/11/28 09:55:27;;;;;;;;;;;;;;;22.06;30.32;96629.19;4905315;29;922;-80
2021/11/28 09:57:53;;;;;;;;;;;;;;;22.14;30.45;96638.94;4923582;29;1899;-79
2021/11/28 10:00:21;;;;;;;;;;;;;;;22.69;30.51;96647.06;4886793;29;999;-78
2021/11/28 10:02:46;;;;;;;;;;;;;;;22.64;30.32;96650.56;4886725;29;1030;-79
2021/11/28 10:05:12;;;;;;;;;;;;;;;22.67;29.83;96655.25;4885934;29;889;-79
2021/11/28 10:07:39;;;;;;;;;;;;;;;22.54;30.07;96663.25;4860236;29;1112;-80
2021/11/28 10:10:05;;;;;;;;;;;;;;;22.04;30.56;96654.41;4848819;29;995;-79
2021/11/28 10:12:31;;;;;;;;;;;;;;;22.29;30.14;96659.63;4864283;29;1091;-79
2021/11/28 10:14:57;;;;;;;;;;;;;;;22.35;29.86;96649.19;4854511;29;1448;-79
2021/11/28 10:17:24;;;;;;;;;;;;;;;22.22;30.55;96634.47;4858429;29;1965;-79
2021/11/28 10:19:49;;;;;;;;;;;;;;;22.21;30.92;96635.75;4851703;29;966;-79
2021/11/28 10:22:15;;;;;;;;;;;;;;;22.71;30.41;96627.50;4857554;29;1195;-79
2021/11/28 10:25:02;;;;;;;;;;;;;;;22.93;29.84;96627.16;4853668;29;983;-79
2021/11/28 10:27:46;;;;;;;;;;;;;;;22.44;30.30;96636.25;4864926;29;1258;-79
2021/11/28 10:30:16;;;;;;;;;;;;;;;22.54;30.13;96652.69;4915409;29;1162;-79
2021/11/28 10:32:45;;;;;;;;;;;;;;;22.42;29.95;96652.91;4903644;29;1143;-79
2021/11/28 10:35:11;;;;;;;;;;;;;;;22.35;30.23;96657.69;4899795;29;1276;-78
2021/11/28 10:37:43;;;;;;;;;;;;;;;22.27;30.24;96645.13;4914562;29;1922;-79
2021/11/28 10:40:09;;;;;;;;;;;;;;;22.33;30.34;96637.56;4917336;29;1324;-80
2021/11/28 10:42:35;;;;;;;;;;;;;;;22.48;30.84;96636.81;4933699;29;1398;-79
2021/11/28 10:45:01;;;;;;;;;;;;;;;22.74;30.58;96639.91;4917170;29;1217;-79
2021/11/28 10:47:42;;;;;;;;;;;;;;;22.96;29.96;96653.78;4916575;29;1268;-79
2021/11/28 10:50:07;;;;;;;;;;;;;;;22.61;30.22;96662.88;4916893;29;1418;-79
2021/11/28 10:52:33;;;;;;;;;;;;;;;22.32;30.61;96669.97;4915127;29;1182;-79
2021/11/28 10:54:58;;;;;;;;;;;;;;;22.22;30.55;96665.63;4878041;29;1279;-79
2021/11/28 10:57:25;;;;;;;;;;;;;;;22.38;30.34;96655.16;4861109;29;1888;-79
2021/11/28 10:59:57;;;;;;;;;;;;;;;22.30;30.22;96655.53;4840896;29;1369;-79
2021/11/28 11:02:27;;;;;;;;;;;;;;;22.11;31.18;96654.06;4861754;29;1264;-79
2021/11/28 11:04:54;;;;;;;;;;;;;;;22.77;30.44;96659.59;4822700;29;1293;-79
2021/11/28 11:07:22;;;;;;;;;;;;;;;22.91;30.10;96651.63;4860289;29;1427;-79
2021/11/28 11:09:48;;;;;;;;;;;;;;;22.40;30.69;96646.97;4878507;29;1277;-79
2021/11/28 11:12:20;;;;;;;;;;;;;;;22.55;30.10;96636.47;4886204;29;1388;-79
2021/11/28 11:14:45;;;;;;;;;;;;;;;22.34;30.25;96647.63;4876522;29;1291;-79
2021/11/28 11:17:11;;;;;;;;;;;;;;;22.41;30.31;96654.19;4881226;29;1910;-79
2021/11/28 11:19:39;;;;;;;;;;;;;;;22.46;30.01;96657.16;4877041;29;1248;-79
2021/11/28 11:22:05;;;;;;;;;;;;;;;22.65;30.79;96669.16;4894881;29;1316;-79
2021/11/28 11:24:32;;;;;;;;;;;;;;;22.83;30.26;96668.19;4925434;29;1390;-79
2021/11/28 11:27:05;;;;;;;;;;;;;;;22.65;30.33;96663.47;4891180;29;1003;-79
2021/11/28 11:29:30;;;;;;;;;;;;;;;22.51;30.13;96669.88;4870523;29;926;-79
2021/11/28 11:31:57;;;;;;;;;;;;;;;22.40;30.54;96692.31;4882506;29;882;-79
2021/11/28 11:34:23;;;;;;;;;;;;;;;22.40;30.09;96675.31;4870721;29;913;-79
2021/11/28 11:36:55;;;;;;;;;;;;;;;22.29;30.41;96687.97;4898843;29;1953;-79
2021/11/28 11:39:21;;;;;;;;;;;;;;;22.32;29.96;96686.97;4906526;29;1063;-77
2021/11/28 11:41:46;;;;;;;;;;;;;;;22.33;29.97;96694.25;4926234;29;884;-77
2021/11/28 11:44:16;;;;;;;;;;;;;;;22.14;30.26;96684.28;4948654;29;951;-77
2021/11/28 11:46:45;;;;;;;;;;;;;;;22.41;30.93;96671.19;4966317;29;986;-76
2021/11/28 11:49:12;;;;;;;;;;;;;;;22.64;30.47;96659.06;4983007;28;869;-76
2021/11/28 11:51:38;;;;;;;;;;;;;;;22.75;30.44;96672.69;4965554;29;942;-76
2021/11/28 11:54:05;;;;;;;;;;;;;;;22.27;30.90;96664.97;4944188;29;875;-76
2021/11/28 11:56:31;;;;;;;;;;;;;;;22.30;30.45;96661.19;4963862;28;1894;-76
2021/11/28 11:59:04;;;;;;;;;;;;;;;22.34;30.29;96667.47;4928382;29;873;-76
2021/11/28 12:01:29;;;;;;;;;;;;;;;22.27;30.33;96672.69;4908180;29;1060;-76
2021/11/28 12:03:55;;;;;;;;;;;;;;;22.32;30.12;96683.38;4905985;29;800;-76
2021/11/28 12:06:53;;;;;;;;;;;;;;;22.72;30.57;96685.78;4926295;29;1011;-76
2021/11/28 12:09:29;;;;;;;;;;;;;;;22.87;30.07;96669.59;4944295;29;1037;-77
2021/11/28 12:12:08;;;;;;;;;;;;;;;22.75;30.13;96670.63;4907839;29;1048;-77
2021/11/28 12:14:34;;;;;;;;;;;;;;;22.52;30.08;96665.75;4868591;29;876;-76
2021/11/28 12:16:59;;;;;;;;;;;;;;;22.40;30.13;96663.97;4888636;29;1883;-77
2021/11/28 12:19:41;;;;;;;;;;;;;;;22.49;29.73;96661.88;4883486;29;884;-77
2021/11/28 12:22:08;;;;;;;;;;;;;;;22.24;30.15;96651.00;4870769;29;860;-75
2021/11/28 12:24:34;;;;;;;;;;;;;;;22.29;30.17;96653.97;4868739;29;974;-76
2021/11/28 12:27:00;;;;;;;;;;;;;;;22.58;30.93;96656.09;4875942;29;950;-76
2021/11/28 12:29:25;;;;;;;;;;;;;;;22.81;30.14;96648.84;4887229;29;765;-76
2021/11/28 12:31:51;;;;;;;;;;;;;;;22.85;29.99;96648.66;4955440;28;1165;-76
2021/11/28 12:34:22;;;;;;;;;;;;;;;22.50;30.39;96663.41;4981902;28;1288;-76
2021/11/28 12:36:56;;;;;;;;;;;;;;;22.34;30.44;96661.03;4984039;28;1973;-76
2021/11/28 12:39:23;;;;;;;;;;;;;;;22.38;30.11;96672.16;4943864;29;1061;-76
2021/11/28 12:41:52;;;;;;;;;;;;;;;22.33;30.26;96668.75;4925080;29;1139;-76
2021/11/28 12:44:18;;;;;;;;;;;;;;;22.33;30.26;96688.56;4905920;29;867;-77
2021/11/28 12:46:45;;;;;;;;;;;;;;;22.29;31.15;96698.53;4871589;29;1059;-77
2021/11/28 12:49:26;;;;;;;;;;;;;;;22.85;30.38;96699.72;4924039;29;1289;-76
2021/11/28 12:51:52;;;;;;;;;;;;;;;22.98;29.87;96691.75;4907509;29;1264;-77
2021/11/28 12:54:24;;;;;;;;;;;;;;;22.69;30.04;96702.97;4904801;29;902;-76
2021/11/28 12:57:08;;;;;;;;;;;;;;;22.43;30.34;96694.16;4876217;29;1891;-76
2021/11/28 12:59:34;;;;;;;;;;;;;;;22.45;30.02;96694.47;4905167;29;903;-75
2021/11/28 13:02:00;;;;;;;;;;;;;;;22.31;30.33;96695.97;4907459;29;917;-76
2021/11/28 13:04:41;;;;;;;;;;;;;;;22.25;30.58;96687.34;4905215;29;962;-76
2021/11/28 13:07:26;;;;;;;;;;;;;;;22.23;30.53;96695.56;4907057;29;876;-76
2021/11/28 13:09:56;;;;;;;;;;;;;;;22.44;31.01;96681.59;4894974;29;1279;-76
2021/11/28 13:12:25;;;;;;;;;;;;;;;22.71;30.67;96691.94;4900874;29;1089;-76
2021/11/28 13:14:51;;;;;;;;;;;;;;;21.21;30.02;96428.38;4902222;29;843;-76
2021/11/28 13:17:23;;;;;;;;;;;;;;;22.73;30.26;96686.56;4877811;29;1884;-76
2021/11/28 13:19:49;;;;;;;;;;;;;;;22.31;30.49;96682.59;4862557;29;961;-76